createdAt,value
2022-11-02T00:00:01.481Z,1002.48
2022-11-02T00:01:01.461Z,1002.48
2022-11-02T00:02:01.641Z,1002.46
2022-11-02T00:03:01.880Z,1002.45
2022-11-02T00:04:01.423Z,1002.43
2022-11-02T00:05:01.401Z,1002.49
2022-11-02T00:06:01.416Z,1002.44
2022-11-02T00:07:01.372Z,1002.42
2022-11-02T00:08:01.389Z,1002.43
2022-11-02T00:09:01.336Z,1002.38
2022-11-02T00:10:01.323Z,1002.39
2022-11-02T00:11:01.360Z,1002.39
2022-11-02T00:12:01.293Z,1002.37
2022-11-02T00:13:01.588Z,1002.38
2022-11-02T00:14:01.253Z,1002.33
2022-11-02T00:15:01.247Z,1002.30
2022-11-02T00:16:01.224Z,1002.33
2022-11-02T00:17:01.219Z,1002.40
2022-11-02T00:18:01.234Z,1002.32
2022-11-02T00:19:01.183Z,1002.31
2022-11-02T00:20:01.159Z,1002.32
2022-11-02T00:21:01.147Z,1002.26
2022-11-02T00:22:01.185Z,1002.31
2022-11-02T00:23:01.390Z,1002.24
2022-11-02T00:24:01.093Z,1002.24
2022-11-02T00:25:01.097Z,1002.23
2022-11-02T00:26:02.539Z,1002.19
2022-11-02T00:27:01.050Z,1002.16
2022-11-02T00:28:01.098Z,1002.19
2022-11-02T00:29:01.023Z,1002.19
2022-11-02T00:30:01.004Z,1002.22
2022-11-02T00:31:00.994Z,1002.24
2022-11-02T00:32:00.971Z,1002.18
2022-11-02T00:33:01.134Z,1002.18
2022-11-02T00:34:00.945Z,1002.21
2022-11-02T00:35:00.927Z,1002.15
2022-11-02T00:36:00.909Z,1002.13
2022-11-02T00:37:00.897Z,1002.13
2022-11-02T00:38:01.063Z,1002.12
2022-11-02T00:39:00.907Z,1002.19
2022-11-02T00:40:00.846Z,1002.17
2022-11-02T00:41:00.841Z,1002.12
2022-11-02T00:42:00.812Z,1002.09
2022-11-02T00:43:00.803Z,1002.18
2022-11-02T00:44:00.786Z,1002.15
2022-11-02T00:45:00.819Z,1002.11
2022-11-02T00:46:00.753Z,1002.10
2022-11-02T00:47:00.738Z,1002.15
2022-11-02T00:48:00.823Z,1002.12
2022-11-02T00:49:00.705Z,1002.12
2022-11-02T00:50:00.690Z,1002.16
2022-11-02T00:51:00.717Z,1002.16
2022-11-02T00:52:00.656Z,1002.11
2022-11-02T00:53:00.648Z,1002.09
2022-11-02T00:54:00.628Z,1002.12
2022-11-02T00:55:00.610Z,1002.15
2022-11-02T00:56:00.603Z,1002.18
2022-11-02T00:58:00.849Z,1002.14
2022-11-02T00:59:00.549Z,1002.11
2022-11-02T01:00:00.542Z,1002.09
2022-11-02T01:01:00.549Z,1002.12
2022-11-02T01:02:00.595Z,1002.06
2022-11-02T01:03:00.494Z,1002.02
2022-11-02T01:04:00.482Z,1002.05
2022-11-02T01:05:00.456Z,1002.00
2022-11-02T01:06:00.437Z,1002.02
2022-11-02T01:07:00.425Z,1002.09
2022-11-02T01:08:00.480Z,1002.08
2022-11-02T01:09:00.419Z,1002.02
2022-11-02T01:10:00.417Z,1002.01
2022-11-02T01:11:00.367Z,1002.04
2022-11-02T01:12:00.353Z,1002.04
2022-11-02T01:14:32.429Z,1002.06
2022-11-02T01:15:32.455Z,1002.14
2022-11-02T01:16:32.445Z,1002.09
2022-11-02T01:17:32.375Z,1002.10
2022-11-02T01:18:32.360Z,1002.09
2022-11-02T01:19:32.358Z,1002.07
2022-11-02T01:20:32.329Z,1002.03
2022-11-02T01:21:32.345Z,1002.01
2022-11-02T01:22:32.322Z,1002.04
2022-11-02T01:23:32.283Z,1002.09
2022-11-02T01:24:32.273Z,1002.09
2022-11-02T01:25:32.248Z,1002.05
2022-11-02T01:26:32.241Z,1002.07
2022-11-02T01:27:32.268Z,1001.98
2022-11-02T01:28:32.230Z,1001.98
2022-11-02T01:29:32.196Z,1001.96
2022-11-02T01:30:32.175Z,1001.93
2022-11-02T01:31:32.157Z,1002.01
2022-11-02T01:32:32.150Z,1001.95
2022-11-02T01:33:32.179Z,1001.93
2022-11-02T01:34:32.118Z,1001.92
2022-11-02T01:35:32.094Z,1001.91
2022-11-02T01:36:32.093Z,1001.88
2022-11-02T01:37:32.068Z,1001.90
2022-11-02T01:38:32.045Z,1001.91
2022-11-02T01:39:32.077Z,1001.97
2022-11-02T01:40:32.015Z,1001.98
2022-11-02T01:41:32.020Z,1001.98
2022-11-02T01:42:31.987Z,1001.97
2022-11-02T01:43:31.967Z,1001.92
2022-11-02T01:44:31.957Z,1001.96
2022-11-02T01:45:31.969Z,1001.93
2022-11-02T01:46:31.928Z,1001.93
2022-11-02T01:47:31.902Z,1001.89
2022-11-02T01:48:31.899Z,1001.90
2022-11-02T01:49:31.875Z,1001.88
2022-11-02T01:50:31.885Z,1001.88
2022-11-02T01:51:31.855Z,1001.88
2022-11-02T01:52:31.828Z,1001.85
2022-11-02T01:53:31.809Z,1001.82
2022-11-02T01:54:31.799Z,1001.84
2022-11-02T01:55:31.814Z,1001.83
2022-11-02T01:56:31.770Z,1001.85
2022-11-02T01:57:31.750Z,1001.79
2022-11-02T01:58:31.740Z,1001.82
2022-11-02T01:59:31.722Z,1001.80
2022-11-02T02:00:31.814Z,1001.75
2022-11-02T02:01:31.843Z,1001.75
2022-11-02T02:02:31.876Z,1001.75
2022-11-02T02:03:31.660Z,1001.81
2022-11-02T02:04:31.656Z,1001.77
2022-11-02T02:05:31.625Z,1001.76
2022-11-02T02:06:31.618Z,1001.75
2022-11-02T02:07:31.602Z,1001.76
2022-11-02T02:08:31.583Z,1001.76
2022-11-02T02:09:31.562Z,1001.73
2022-11-02T02:10:31.549Z,1001.70
2022-11-02T02:11:31.586Z,1001.79
2022-11-02T02:12:31.519Z,1001.76
2022-11-02T02:13:31.513Z,1001.76
2022-11-02T02:14:31.497Z,1001.77
2022-11-02T02:15:31.469Z,1001.76
2022-11-02T02:16:33.558Z,1001.75
2022-11-02T02:17:31.481Z,1001.76
2022-11-02T02:18:31.481Z,1001.73
2022-11-02T02:19:31.412Z,1001.73
2022-11-02T02:20:31.399Z,1001.71
2022-11-02T02:21:31.389Z,1001.70
2022-11-02T02:22:31.362Z,1001.72
2022-11-02T02:23:31.351Z,1001.69
2022-11-02T02:24:31.375Z,1001.66
2022-11-02T02:25:31.321Z,1001.64
2022-11-02T02:26:31.308Z,1001.64
2022-11-02T02:27:31.288Z,1001.62
2022-11-02T02:28:31.275Z,1001.60
2022-11-02T02:29:31.261Z,1001.58
2022-11-02T02:30:31.274Z,1001.58
2022-11-02T02:31:31.231Z,1001.58
2022-11-02T02:32:31.212Z,1001.53
2022-11-02T02:33:31.195Z,1001.54
2022-11-02T02:34:31.215Z,1001.52
2022-11-02T02:35:31.173Z,1001.53
2022-11-02T02:36:31.154Z,1001.57
2022-11-02T02:37:31.143Z,1001.55
2022-11-02T02:38:31.128Z,1001.57
2022-11-02T02:39:31.104Z,1001.56
2022-11-02T02:40:31.090Z,1001.53
2022-11-02T02:41:31.074Z,1001.53
2022-11-02T02:42:31.058Z,1001.55
2022-11-02T02:43:31.043Z,1001.49
2022-11-02T02:44:31.029Z,1001.50
2022-11-02T02:45:31.011Z,1001.48
2022-11-02T02:46:34.368Z,1001.41
2022-11-02T02:47:30.981Z,1001.44
2022-11-02T02:48:30.965Z,1001.49
2022-11-02T02:49:30.947Z,1001.45
2022-11-02T02:50:30.935Z,1001.41
2022-11-02T02:51:30.926Z,1001.44
2022-11-02T02:52:30.920Z,1001.46
2022-11-02T02:53:30.888Z,1001.46
2022-11-02T02:54:30.871Z,1001.45
2022-11-02T02:55:30.868Z,1001.46
2022-11-02T02:56:30.846Z,1001.40
2022-11-02T02:57:30.831Z,1001.38
2022-11-02T02:58:30.811Z,1001.42
2022-11-02T02:59:30.798Z,1001.46
2022-11-02T03:00:30.784Z,1001.47
2022-11-02T03:01:30.844Z,1001.45
2022-11-02T03:02:30.895Z,1001.44
2022-11-02T03:03:30.745Z,1001.41
2022-11-02T03:04:30.718Z,1001.47
2022-11-02T03:05:30.709Z,1001.40
2022-11-02T03:06:30.687Z,1001.44
2022-11-02T03:07:33.747Z,1001.36
2022-11-02T03:08:30.719Z,1001.42
2022-11-02T03:09:30.641Z,1001.39
2022-11-02T03:10:30.625Z,1001.42
2022-11-02T03:11:30.609Z,1001.48
2022-11-02T03:12:30.601Z,1001.42
2022-11-02T03:13:30.584Z,1001.37
2022-11-02T03:14:30.590Z,1001.45
2022-11-02T03:15:30.548Z,1001.42
2022-11-02T03:16:30.533Z,1001.38
2022-11-02T03:17:30.530Z,1001.43
2022-11-02T03:18:30.500Z,1001.43
2022-11-02T03:19:30.485Z,1001.37
2022-11-02T03:20:30.470Z,1001.39
2022-11-02T03:21:30.454Z,1001.43
2022-11-02T03:22:30.442Z,1001.40
2022-11-02T03:23:30.426Z,1001.44
2022-11-02T03:24:30.413Z,1001.44
2022-11-02T03:25:30.395Z,1001.46
2022-11-02T03:26:30.381Z,1001.45
2022-11-02T03:27:30.463Z,1001.48
2022-11-02T03:28:30.401Z,1001.47
2022-11-02T03:29:30.333Z,1001.45
2022-11-02T03:30:30.316Z,1001.44
2022-11-02T03:31:30.330Z,1001.49
2022-11-02T03:32:30.280Z,1001.47
2022-11-02T03:33:30.297Z,1001.51
2022-11-02T03:34:30.250Z,1001.51
2022-11-02T03:35:30.238Z,1001.54
2022-11-02T03:36:30.221Z,1001.56
2022-11-02T03:37:30.207Z,1001.55
2022-11-02T03:38:30.215Z,1001.52
2022-11-02T03:39:30.172Z,1001.55
2022-11-02T03:40:30.156Z,1001.54
2022-11-02T03:41:30.148Z,1001.55
2022-11-02T03:42:30.124Z,1001.57
2022-11-02T03:43:30.143Z,1001.61
2022-11-02T03:44:30.095Z,1001.55
2022-11-02T03:45:30.082Z,1001.63
2022-11-02T03:46:30.063Z,1001.62
2022-11-02T03:47:30.051Z,1001.62
2022-11-02T03:48:30.059Z,1001.67
2022-11-02T03:49:30.021Z,1001.65
2022-11-02T03:50:30.011Z,1001.66
2022-11-02T03:51:29.988Z,1001.65
2022-11-02T03:52:29.973Z,1001.72
2022-11-02T03:53:29.985Z,1001.74
2022-11-02T03:54:29.966Z,1001.76
2022-11-02T03:55:29.925Z,1001.73
2022-11-02T03:56:29.911Z,1001.73
2022-11-02T03:57:29.894Z,1001.71
2022-11-02T03:58:29.878Z,1001.76
2022-11-02T03:59:29.944Z,1001.73
2022-11-02T04:00:29.843Z,1001.82
2022-11-02T04:01:30.055Z,1001.80
2022-11-02T04:02:29.965Z,1001.80
2022-11-02T04:03:29.801Z,1001.81
2022-11-02T04:04:29.807Z,1001.83
2022-11-02T04:05:29.779Z,1001.87
2022-11-02T04:06:29.808Z,1001.82
2022-11-02T04:07:29.737Z,1001.87
2022-11-02T04:08:29.724Z,1001.84
2022-11-02T04:09:29.714Z,1001.85
2022-11-02T04:10:29.688Z,1001.88
2022-11-02T04:11:29.675Z,1001.85
2022-11-02T04:12:29.661Z,1001.89
2022-11-02T04:13:29.669Z,1001.96
2022-11-02T04:14:29.627Z,1001.88
2022-11-02T04:15:29.613Z,1001.90
2022-11-02T04:16:29.640Z,1001.88
2022-11-02T04:18:29.562Z,1001.88
2022-11-02T04:19:29.630Z,1001.89
2022-11-02T04:20:29.534Z,1001.88
2022-11-02T04:21:29.526Z,1001.86
2022-11-02T04:22:29.502Z,1001.91
2022-11-02T04:23:29.492Z,1001.91
2022-11-02T04:24:29.482Z,1001.94
2022-11-02T04:25:29.459Z,1001.87
2022-11-02T04:26:29.438Z,1001.88
2022-11-02T04:27:29.425Z,1001.89
2022-11-02T04:28:29.406Z,1001.90
2022-11-02T04:29:29.394Z,1001.87
2022-11-02T04:30:29.377Z,1001.86
2022-11-02T04:31:29.362Z,1001.86
2022-11-02T04:32:29.343Z,1001.89
2022-11-02T04:33:29.330Z,1001.91
2022-11-02T04:34:29.312Z,1001.92
2022-11-02T04:35:29.381Z,1001.95
2022-11-02T04:36:29.281Z,1001.94
2022-11-02T04:38:29.248Z,1001.92
2022-11-02T04:39:29.238Z,1001.94
2022-11-02T04:40:29.219Z,1001.96
2022-11-02T04:41:29.213Z,1001.90
2022-11-02T04:42:29.187Z,1001.89
2022-11-02T04:43:29.191Z,1001.95
2022-11-02T04:44:29.205Z,1001.99
2022-11-02T04:45:29.143Z,1001.98
2022-11-02T04:46:29.148Z,1001.98
2022-11-02T04:47:29.137Z,1001.97
2022-11-02T04:48:29.109Z,1001.92
2022-11-02T04:49:29.082Z,1001.92
2022-11-02T04:50:29.068Z,1001.96
2022-11-02T04:51:29.065Z,1001.97
2022-11-02T04:52:29.058Z,1001.97
2022-11-02T04:53:29.019Z,1001.99
2022-11-02T04:54:29.001Z,1002.00
2022-11-02T04:55:28.986Z,1001.97
2022-11-02T04:56:28.969Z,1001.95
2022-11-02T04:57:29.054Z,1002.00
2022-11-02T04:58:28.943Z,1002.01
2022-11-02T04:59:28.924Z,1001.93
2022-11-02T05:00:28.937Z,1001.98
2022-11-02T05:01:28.949Z,1001.95
2022-11-02T05:02:28.980Z,1001.95
2022-11-02T05:03:28.863Z,1002.02
2022-11-02T05:04:28.858Z,1002.02
2022-11-02T05:05:28.834Z,1001.95
2022-11-02T05:06:28.816Z,1002.01
2022-11-02T05:07:28.798Z,1002.03
2022-11-02T05:08:28.782Z,1002.04
2022-11-02T05:09:28.769Z,1001.98
2022-11-02T05:10:28.774Z,1002.01
2022-11-02T05:11:28.749Z,1002.00
2022-11-02T05:12:29.408Z,1001.96
2022-11-02T05:13:28.757Z,1002.02
2022-11-02T05:14:28.688Z,1002.02
2022-11-02T05:15:28.672Z,1002.03
2022-11-02T05:16:28.653Z,1002.07
2022-11-02T05:17:28.645Z,1002.06
2022-11-02T05:18:28.628Z,1002.05
2022-11-02T05:19:28.638Z,1002.02
2022-11-02T05:20:28.593Z,1002.08
2022-11-02T05:21:28.580Z,1002.03
2022-11-02T05:22:28.559Z,1002.09
2022-11-02T05:23:28.602Z,1002.05
2022-11-02T05:24:28.532Z,1002.09
2022-11-02T05:25:28.522Z,1002.02
2022-11-02T05:26:28.500Z,1002.05
2022-11-02T05:27:28.484Z,1002.04
2022-11-02T05:28:28.468Z,1002.00
2022-11-02T05:29:28.481Z,1002.00
2022-11-02T05:30:28.434Z,1001.99
2022-11-02T05:31:28.420Z,1002.04
2022-11-02T05:32:28.410Z,1002.03
2022-11-02T05:33:30.671Z,1002.00
2022-11-02T05:34:28.430Z,1002.02
2022-11-02T05:35:28.369Z,1002.00
2022-11-02T05:36:28.345Z,1002.02
2022-11-02T05:37:28.331Z,1002.06
2022-11-02T05:38:28.405Z,1002.04
2022-11-02T05:39:28.298Z,1002.06
2022-11-02T05:40:28.297Z,1002.07
2022-11-02T05:41:28.265Z,1002.08
2022-11-02T05:42:28.247Z,1002.05
2022-11-02T05:43:28.243Z,1002.06
2022-11-02T05:44:28.217Z,1002.01
2022-11-02T05:45:28.229Z,1002.06
2022-11-02T05:46:28.200Z,1002.09
2022-11-02T05:47:28.201Z,1002.06
2022-11-02T05:48:28.155Z,1002.11
2022-11-02T05:49:28.172Z,1002.15
2022-11-02T05:50:28.130Z,1002.20
2022-11-02T05:51:28.169Z,1002.17
2022-11-02T05:52:28.094Z,1002.16
2022-11-02T05:53:28.088Z,1002.18
2022-11-02T05:54:28.061Z,1002.20
2022-11-02T05:55:28.052Z,1002.20
2022-11-02T05:56:28.057Z,1002.23
2022-11-02T05:57:28.022Z,1002.21
2022-11-02T05:58:27.998Z,1002.21
2022-11-02T05:59:27.988Z,1002.24
2022-11-02T06:00:27.993Z,1002.19
2022-11-02T06:01:28.007Z,1002.19
2022-11-02T06:02:28.005Z,1002.19
2022-11-02T06:03:27.927Z,1002.21
2022-11-02T06:04:27.907Z,1002.20
2022-11-02T06:05:28.022Z,1002.18
2022-11-02T06:06:27.892Z,1002.23
2022-11-02T06:07:27.862Z,1002.28
2022-11-02T06:08:27.871Z,1002.20
2022-11-02T06:09:27.860Z,1002.21
2022-11-02T06:10:27.818Z,1002.23
2022-11-02T06:11:27.797Z,1002.26
2022-11-02T06:12:27.780Z,1002.33
2022-11-02T06:13:27.845Z,1002.22
2022-11-02T06:14:27.750Z,1002.35
2022-11-02T06:15:27.736Z,1002.36
2022-11-02T06:16:27.730Z,1002.31
2022-11-02T06:17:27.705Z,1002.35
2022-11-02T06:18:27.687Z,1002.44
2022-11-02T06:19:27.705Z,1002.49
2022-11-02T06:20:27.655Z,1002.37
2022-11-02T06:21:27.651Z,1002.42
2022-11-02T06:22:27.621Z,1002.50
2022-11-02T06:23:27.613Z,1002.42
2022-11-02T06:24:27.618Z,1002.53
2022-11-02T06:25:27.584Z,1002.49
2022-11-02T06:26:27.572Z,1002.48
2022-11-02T06:27:27.550Z,1002.47
2022-11-02T06:28:27.528Z,1002.48
2022-11-02T06:29:27.569Z,1002.46
2022-11-02T06:30:27.500Z,1002.52
2022-11-02T06:31:27.484Z,1002.60
2022-11-02T06:32:27.471Z,1002.60
2022-11-02T06:33:27.452Z,1002.57
2022-11-02T06:34:27.444Z,1002.65
2022-11-02T06:35:27.447Z,1002.58
2022-11-02T06:36:27.409Z,1002.64
2022-11-02T06:37:27.400Z,1002.70
2022-11-02T06:38:27.373Z,1002.64
2022-11-02T06:39:27.374Z,1002.68
2022-11-02T06:40:27.410Z,1002.77
2022-11-02T06:41:27.327Z,1002.74
2022-11-02T06:42:27.337Z,1002.73
2022-11-02T06:43:27.321Z,1002.79
2022-11-02T06:44:27.279Z,1002.83
2022-11-02T06:45:27.273Z,1002.79
2022-11-02T06:46:27.250Z,1002.74
2022-11-02T06:47:27.231Z,1002.76
2022-11-02T06:48:33.076Z,1002.74
2022-11-02T06:49:27.206Z,1002.78
2022-11-02T06:50:27.231Z,1002.76
2022-11-02T06:51:27.206Z,1002.88
2022-11-02T06:52:27.152Z,1002.78
2022-11-02T06:53:27.141Z,1002.88
2022-11-02T06:54:27.123Z,1002.97
2022-11-02T06:55:27.105Z,1002.87
2022-11-02T06:56:27.136Z,1002.80
2022-11-02T06:57:27.103Z,1002.95
2022-11-02T06:58:27.064Z,1002.90
2022-11-02T06:59:27.047Z,1002.86
2022-11-02T07:00:27.065Z,1002.97
2022-11-02T07:01:27.153Z,1002.95
2022-11-02T07:02:27.060Z,1002.95
2022-11-02T07:03:26.983Z,1002.90
2022-11-02T07:04:26.974Z,1002.92
2022-11-02T07:05:27.115Z,1002.95
2022-11-02T07:06:26.957Z,1002.99
2022-11-02T07:07:26.919Z,1003.06
2022-11-02T07:08:26.908Z,1002.98
2022-11-02T07:09:26.908Z,1003.19
2022-11-02T07:10:26.875Z,1002.99
2022-11-02T07:11:26.879Z,1003.10
2022-11-02T07:12:26.840Z,1003.09
2022-11-02T07:13:26.823Z,1003.05
2022-11-02T07:14:26.808Z,1003.10
2022-11-02T07:15:26.794Z,1003.06
2022-11-02T07:16:26.812Z,1003.13
2022-11-02T07:17:31.868Z,1003.14
2022-11-02T07:18:26.773Z,1003.13
2022-11-02T07:19:26.727Z,1003.18
2022-11-02T07:20:26.713Z,1003.09
2022-11-02T07:21:26.749Z,1003.17
2022-11-02T07:22:26.685Z,1003.17
2022-11-02T07:23:26.670Z,1003.17
2022-11-02T07:24:26.652Z,1003.19
2022-11-02T07:25:26.639Z,1003.20
2022-11-02T07:26:26.617Z,1003.27
2022-11-02T07:27:26.600Z,1003.24
2022-11-02T07:28:26.604Z,1003.25
2022-11-02T07:29:26.625Z,1003.39
2022-11-02T07:30:26.569Z,1003.34
2022-11-02T07:31:26.539Z,1003.43
2022-11-02T07:32:26.527Z,1003.48
2022-11-02T07:33:26.532Z,1003.45
2022-11-02T07:34:26.492Z,1003.44
2022-11-02T07:35:26.481Z,1003.51
2022-11-02T07:36:26.458Z,1003.49
2022-11-02T07:37:26.447Z,1003.46
2022-11-02T07:38:26.434Z,1003.56
2022-11-02T07:39:26.413Z,1003.51
2022-11-02T07:40:26.401Z,1003.48
2022-11-02T07:41:26.415Z,1003.50
2022-11-02T07:42:26.396Z,1003.61
2022-11-02T07:43:26.351Z,1003.58
2022-11-02T07:44:26.359Z,1003.56
2022-11-02T07:45:26.333Z,1003.61
2022-11-02T07:46:26.360Z,1003.50
2022-11-02T07:47:26.304Z,1003.62
2022-11-02T07:48:26.280Z,1003.65
2022-11-02T07:49:26.266Z,1003.57
2022-11-02T07:50:26.277Z,1003.65
2022-11-02T07:51:26.225Z,1003.64
2022-11-02T07:52:26.236Z,1003.64
2022-11-02T07:53:26.225Z,1003.65
2022-11-02T07:54:26.647Z,1003.67
2022-11-02T07:55:26.165Z,1003.75
2022-11-02T07:56:26.189Z,1003.75
2022-11-02T07:57:26.203Z,1003.79
2022-11-02T07:58:26.124Z,1003.80
2022-11-02T07:59:26.099Z,1003.77
2022-11-02T08:00:26.210Z,1003.78
2022-11-02T08:01:26.163Z,1003.82
2022-11-02T08:02:26.165Z,1003.81
2022-11-02T08:03:26.077Z,1003.86
2022-11-02T08:04:26.023Z,1003.84
2022-11-02T08:05:26.012Z,1003.88
2022-11-02T08:06:25.991Z,1003.84
2022-11-02T08:07:26.005Z,1003.91
2022-11-02T08:08:25.959Z,1003.75
2022-11-02T08:09:25.941Z,1003.89
2022-11-02T08:10:25.954Z,1003.80
2022-11-02T08:11:25.960Z,1003.92
2022-11-02T08:12:25.899Z,1003.91
2022-11-02T08:13:25.904Z,1003.91
2022-11-02T08:14:25.891Z,1003.92
2022-11-02T08:15:25.849Z,1003.95
2022-11-02T08:16:25.957Z,1003.95
2022-11-02T08:17:25.819Z,1003.96
2022-11-02T08:18:25.804Z,1003.93
2022-11-02T08:19:25.801Z,1003.95
2022-11-02T08:20:25.776Z,1003.85
2022-11-02T08:21:25.812Z,1003.93
2022-11-02T08:22:25.750Z,1004.01
2022-11-02T08:23:25.777Z,1003.95
2022-11-02T08:24:25.711Z,1003.98
2022-11-02T08:25:25.692Z,1004.09
2022-11-02T08:26:25.677Z,1003.87
2022-11-02T08:27:25.691Z,1004.02
2022-11-02T08:28:25.645Z,1003.98
2022-11-02T08:29:25.631Z,1004.01
2022-11-02T08:30:25.614Z,1003.96
2022-11-02T08:31:25.625Z,1004.06
2022-11-02T08:32:25.585Z,1004.05
2022-11-02T08:33:25.571Z,1003.97
2022-11-02T08:34:25.550Z,1004.06
2022-11-02T08:35:25.540Z,1004.06
2022-11-02T08:36:25.545Z,1004.23
2022-11-02T08:37:25.505Z,1004.16
2022-11-02T08:38:25.491Z,1004.16
2022-11-02T08:39:25.472Z,1004.14
2022-11-02T08:40:25.575Z,1004.16
2022-11-02T08:41:25.481Z,1004.23
2022-11-02T08:42:25.426Z,1004.30
2022-11-02T08:43:25.410Z,1004.30
2022-11-02T08:44:25.427Z,1004.25
2022-11-02T08:45:25.381Z,1004.23
2022-11-02T08:46:25.370Z,1004.19
2022-11-02T08:47:25.353Z,1004.26
2022-11-02T08:48:25.359Z,1004.34
2022-11-02T08:49:25.315Z,1004.32
2022-11-02T08:50:25.308Z,1004.36
2022-11-02T08:51:25.293Z,1004.42
2022-11-02T08:52:25.275Z,1004.26
2022-11-02T08:53:25.322Z,1004.32
2022-11-02T08:54:25.249Z,1004.32
2022-11-02T08:55:25.224Z,1004.35
2022-11-02T08:56:25.214Z,1004.35
2022-11-02T08:57:25.202Z,1004.30
2022-11-02T08:58:25.195Z,1004.34
2022-11-02T08:59:25.170Z,1004.30
2022-11-02T09:00:25.237Z,1004.38
2022-11-02T09:01:25.138Z,1004.24
2022-11-02T09:02:25.170Z,1004.41
2022-11-02T09:03:27.375Z,1004.31
2022-11-02T09:04:25.126Z,1004.35
2022-11-02T09:05:25.077Z,1004.38
2022-11-02T09:06:25.133Z,1004.38
2022-11-02T09:07:25.035Z,1004.36
2022-11-02T09:09:25.007Z,1004.42
2022-11-02T09:10:25.030Z,1004.44
2022-11-02T09:11:24.974Z,1004.45
2022-11-02T09:12:24.960Z,1004.47
2022-11-02T09:13:25.061Z,1004.39
2022-11-02T09:14:24.989Z,1004.49
2022-11-02T09:15:24.939Z,1004.47
2022-11-02T09:16:24.929Z,1004.58
2022-11-02T09:17:24.908Z,1004.59
2022-11-02T09:18:24.924Z,1004.57
2022-11-02T09:19:24.853Z,1004.57
2022-11-02T09:20:24.839Z,1004.67
2022-11-02T09:21:24.821Z,1004.64
2022-11-02T09:22:24.803Z,1004.72
2022-11-02T09:23:24.819Z,1004.74
2022-11-02T09:24:24.780Z,1004.65
2022-11-02T09:25:24.765Z,1004.69
2022-11-02T09:26:24.772Z,1004.87
2022-11-02T09:27:24.727Z,1004.78
2022-11-02T09:28:24.711Z,1004.72
2022-11-02T09:30:24.691Z,1004.73
2022-11-02T09:31:24.664Z,1004.81
2022-11-02T09:32:24.647Z,1004.81
2022-11-02T09:33:24.686Z,1004.86
2022-11-02T09:34:24.618Z,1004.80
2022-11-02T09:35:24.601Z,1004.89
2022-11-02T09:36:24.597Z,1004.76
2022-11-02T09:37:24.568Z,1004.76
2022-11-02T09:38:24.553Z,1004.94
2022-11-02T09:39:24.556Z,1004.82
2022-11-02T09:40:24.525Z,1004.95
2022-11-02T09:41:24.508Z,1004.94
2022-11-02T09:42:24.511Z,1004.91
2022-11-02T09:43:27.106Z,1004.87
2022-11-02T09:44:24.512Z,1005.05
2022-11-02T09:45:24.443Z,1004.87
2022-11-02T09:46:24.431Z,1004.96
2022-11-02T09:48:28.383Z,1005.03
2022-11-02T09:49:24.380Z,1004.94
2022-11-02T09:50:24.368Z,1004.92
2022-11-02T09:51:24.353Z,1005.08
2022-11-02T09:52:24.397Z,1005.06
2022-11-02T09:53:24.396Z,1005.02
2022-11-02T09:54:24.304Z,1005.05
2022-11-02T09:55:24.304Z,1005.11
2022-11-02T09:56:24.276Z,1005.13
2022-11-02T09:57:24.260Z,1005.14
2022-11-02T09:58:24.271Z,1005.07
2022-11-02T09:59:24.253Z,1005.11
2022-11-02T10:00:24.336Z,1005.06
2022-11-02T10:01:24.219Z,1005.18
2022-11-02T10:02:24.244Z,1005.13
2022-11-02T10:03:24.214Z,1005.20
2022-11-02T10:04:24.164Z,1005.23
2022-11-02T10:05:24.148Z,1005.22
2022-11-02T10:06:24.145Z,1005.34
2022-11-02T10:07:24.103Z,1005.13
2022-11-02T10:08:24.089Z,1005.20
2022-11-02T10:09:24.126Z,1005.20
2022-11-02T10:10:24.062Z,1005.27
2022-11-02T10:11:24.085Z,1005.22
2022-11-02T10:12:24.044Z,1005.33
2022-11-02T10:13:24.011Z,1005.37
2022-11-02T10:14:24.041Z,1005.38
2022-11-02T10:15:24.002Z,1005.37
2022-11-02T10:16:23.968Z,1005.32
2022-11-02T10:17:23.957Z,1005.35
2022-11-02T10:18:23.934Z,1005.32
2022-11-02T10:19:26.277Z,1005.40
2022-11-02T10:20:23.902Z,1005.37
2022-11-02T10:21:23.887Z,1005.45
2022-11-02T10:22:23.874Z,1005.42
2022-11-02T10:23:23.866Z,1005.42
2022-11-02T10:24:23.843Z,1005.36
2022-11-02T10:25:23.860Z,1005.40
2022-11-02T10:26:23.811Z,1005.45
2022-11-02T10:27:23.796Z,1005.56
2022-11-02T10:28:23.880Z,1005.57
2022-11-02T10:29:23.766Z,1005.49
2022-11-02T10:30:23.751Z,1005.41
2022-11-02T10:31:23.747Z,1005.43
2022-11-02T10:32:23.724Z,1005.44
2022-11-02T10:33:23.706Z,1005.58
2022-11-02T10:34:23.721Z,1005.47
2022-11-02T10:35:37.059Z,1005.62
2022-11-02T10:36:23.660Z,1005.55
2022-11-02T10:37:23.657Z,1005.53
2022-11-02T10:38:23.650Z,1005.61
2022-11-02T10:39:23.637Z,1005.62
2022-11-02T10:40:23.612Z,1005.61
2022-11-02T10:41:23.579Z,1005.62
2022-11-02T10:42:23.568Z,1005.66
2022-11-02T10:43:23.577Z,1005.69
2022-11-02T10:44:23.557Z,1005.71
2022-11-02T10:45:23.529Z,1005.75
2022-11-02T10:46:23.544Z,1005.73
2022-11-02T10:47:23.489Z,1005.73
2022-11-02T10:48:23.479Z,1005.77
2022-11-02T10:49:23.499Z,1005.90
2022-11-02T10:50:23.442Z,1005.74
2022-11-02T10:51:23.451Z,1005.75
2022-11-02T10:52:23.415Z,1005.73
2022-11-02T10:54:29.310Z,1005.73
2022-11-02T10:55:23.392Z,1005.78
2022-11-02T10:56:23.380Z,1005.77
2022-11-02T10:57:23.340Z,1005.73
2022-11-02T10:58:23.322Z,1005.85
2022-11-02T10:59:23.310Z,1005.79
2022-11-02T11:00:23.320Z,1005.81
2022-11-02T11:01:23.379Z,1005.92
2022-11-02T11:02:23.258Z,1005.91
2022-11-02T11:03:23.270Z,1005.92
2022-11-02T11:04:23.226Z,1005.81
2022-11-02T11:05:23.209Z,1005.83
2022-11-02T11:06:23.205Z,1005.86
2022-11-02T11:07:23.208Z,1005.85
2022-11-02T11:08:23.169Z,1005.76
2022-11-02T11:09:23.147Z,1005.95
2022-11-02T11:10:23.143Z,1005.96
2022-11-02T11:11:23.147Z,1005.99
2022-11-02T11:12:23.102Z,1005.98
2022-11-02T11:16:26.504Z,1006.05
2022-11-02T11:19:39.419Z,1006.11
2022-11-02T11:20:22.982Z,1006.23
2022-11-02T11:21:22.999Z,1006.19
2022-11-02T11:22:22.978Z,1006.12
2022-11-02T11:23:22.951Z,1006.04
2022-11-02T11:24:23.012Z,1006.13
2022-11-02T11:25:27.062Z,1006.22
2022-11-02T11:26:22.887Z,1006.29
2022-11-02T11:27:22.877Z,1006.15
2022-11-02T11:28:22.902Z,1006.17
2022-11-02T11:29:22.843Z,1006.25
2022-11-02T11:30:46.299Z,1006.27
2022-11-02T11:31:22.842Z,1006.25
2022-11-02T11:32:28.691Z,1006.17
2022-11-02T11:33:22.829Z,1006.35
2022-11-02T11:34:22.763Z,1006.19
2022-11-02T11:35:22.942Z,1006.21
2022-11-02T11:36:22.830Z,1006.19
2022-11-02T11:37:23.001Z,1006.18
2022-11-02T11:38:22.958Z,1006.17
2022-11-02T11:39:22.830Z,1006.18
2022-11-02T11:40:22.679Z,1006.19
2022-11-02T11:41:22.688Z,1006.23
2022-11-02T11:42:22.824Z,1006.21
2022-11-02T11:43:22.652Z,1006.24
2022-11-02T11:44:22.617Z,1006.27
2022-11-02T11:45:22.594Z,1006.20
2022-11-02T11:46:22.577Z,1006.17
2022-11-02T11:47:22.657Z,1006.20
2022-11-02T11:48:22.549Z,1006.18
2022-11-02T11:49:31.020Z,1006.32
2022-11-02T11:50:24.823Z,1006.19
2022-11-02T11:51:25.353Z,1006.20
2022-11-02T11:52:27.048Z,1006.26
2022-11-02T11:53:22.825Z,1006.22
2022-11-02T11:54:22.527Z,1006.16
2022-11-02T11:55:22.452Z,1006.16
2022-11-02T11:56:22.422Z,1006.15
2022-11-02T11:57:22.475Z,1006.23
2022-11-02T11:58:22.408Z,1006.21
2022-11-02T11:59:22.381Z,1006.24
2022-11-02T12:00:22.368Z,1006.25
2022-11-02T12:01:22.419Z,1006.18
2022-11-02T12:02:22.446Z,1006.25
2022-11-02T12:03:22.495Z,1006.31
2022-11-02T12:04:22.301Z,1006.33
2022-11-02T12:05:22.293Z,1006.27
2022-11-02T12:06:22.270Z,1006.20
2022-11-02T12:07:22.268Z,1006.27
2022-11-02T12:08:22.264Z,1006.22
2022-11-02T12:09:22.229Z,1006.28
2022-11-02T12:10:22.207Z,1006.20
2022-11-02T12:11:22.271Z,1006.21
2022-11-02T12:12:22.178Z,1006.12
2022-11-02T12:13:22.166Z,1006.17
2022-11-02T12:14:22.201Z,1006.19
2022-11-02T12:15:22.165Z,1006.19
2022-11-02T12:16:22.123Z,1006.15
2022-11-02T12:17:22.107Z,1006.14
2022-11-02T12:18:22.092Z,1005.91